createdAt,value
2022-07-31T00:04:02.735Z,7.70
2022-07-31T00:06:35.415Z,8.00
2022-07-31T00:09:52.291Z,9.80
2022-07-31T00:12:01.135Z,9.80
2022-07-31T00:14:34.016Z,10.10
2022-07-31T00:17:07.102Z,10.70
2022-07-31T00:19:39.894Z,11.90
2022-07-31T00:22:12.977Z,14.40
2022-07-31T00:24:45.658Z,13.80
2022-07-31T00:27:18.337Z,13.70
2022-07-31T00:29:51.295Z,13.10
2022-07-31T00:32:24.017Z,13.00
2022-07-31T00:34:59.854Z,13.20
2022-07-31T00:37:33.254Z,13.80
2022-07-31T00:40:13.535Z,14.10
2022-07-31T00:42:46.578Z,16.00
2022-07-31T00:45:19.296Z,16.80
2022-07-31T00:47:58.734Z,16.60
2022-07-31T00:50:31.775Z,16.40
2022-07-31T00:53:04.414Z,16.20
2022-07-31T00:55:50.999Z,17.40
2022-07-31T00:58:24.217Z,17.40
2022-07-31T01:01:00.573Z,18.60
2022-07-31T01:03:36.414Z,18.40
2022-07-31T01:06:10.335Z,19.00
2022-07-31T01:08:43.174Z,19.40
2022-07-31T01:11:19.735Z,19.90
2022-07-31T01:13:57.697Z,19.90
2022-07-31T01:16:33.934Z,17.50
2022-07-31T01:19:13.818Z,17.80
2022-07-31T01:21:56.293Z,18.00
2022-07-31T01:24:59.738Z,17.40
2022-07-31T01:27:53.975Z,18.20
2022-07-31T01:30:31.050Z,15.80
2022-07-31T01:33:08.855Z,16.90
2022-07-31T01:35:45.229Z,18.10
2022-07-31T01:38:23.256Z,17.00
2022-07-31T01:41:03.055Z,18.30
2022-07-31T01:43:39.535Z,18.20
2022-07-31T01:46:15.816Z,17.20
2022-07-31T01:48:51.474Z,17.70
2022-07-31T01:51:26.376Z,18.60
2022-07-31T01:54:02.177Z,18.40
2022-07-31T01:56:36.496Z,19.20
2022-07-31T01:59:12.348Z,16.60
2022-07-31T02:02:17.896Z,17.20
2022-07-31T02:04:52.135Z,16.70
2022-07-31T02:07:30.114Z,15.20
2022-07-31T02:10:06.334Z,14.90
2022-07-31T02:12:41.934Z,14.70
2022-07-31T02:15:16.856Z,16.30
2022-07-31T02:17:52.174Z,13.80
2022-07-31T02:20:26.185Z,14.60
2022-07-31T02:23:01.977Z,13.40
2022-07-31T02:25:37.176Z,14.50
2022-07-31T02:28:13.697Z,13.20
2022-07-31T02:30:49.295Z,13.10
2022-07-31T02:33:26.176Z,13.30
2022-07-31T02:36:00.378Z,12.80
2022-07-31T02:38:36.062Z,12.60
2022-07-31T02:41:11.744Z,12.10
2022-07-31T02:43:46.216Z,13.10
2022-07-31T02:46:26.978Z,12.20
2022-07-31T02:49:00.809Z,12.10
2022-07-31T02:54:16.579Z,10.30
2022-07-31T02:56:52.056Z,11.50
2022-07-31T02:59:25.020Z,11.10
2022-07-31T03:02:05.194Z,11.30
2022-07-31T03:04:41.695Z,10.60
2022-07-31T03:07:17.816Z,10.30
2022-07-31T03:09:51.940Z,10.20
2022-07-31T03:12:53.974Z,10.70
2022-07-31T03:15:29.336Z,9.60
2022-07-31T03:18:08.457Z,9.60
2022-07-31T03:20:52.137Z,9.90
2022-07-31T03:23:27.426Z,10.40
2022-07-31T03:26:08.857Z,9.50
2022-07-31T03:28:43.460Z,8.90
2022-07-31T03:31:16.498Z,9.20
2022-07-31T03:33:50.056Z,8.50
2022-07-31T03:36:23.137Z,8.70
2022-07-31T03:38:56.176Z,8.00
2022-07-31T03:41:38.535Z,7.50
2022-07-31T03:46:46.140Z,3.40
2022-07-31T03:49:20.045Z,1.90
2022-07-31T03:54:24.296Z,1.20
2022-07-31T03:57:07.697Z,1.30
2022-07-31T03:59:48.020Z,1.30
2022-07-31T04:02:22.383Z,1.20
2022-07-31T04:05:00.337Z,1.30
2022-07-31T04:10:04.458Z,1.00
2022-07-31T04:12:37.017Z,1.00
2022-07-31T04:15:11.415Z,0.80
2022-07-31T04:17:44.139Z,0.90
2022-07-31T04:20:17.096Z,1.00
2022-07-31T04:22:50.579Z,1.00
2022-07-31T04:25:43.817Z,0.90
2022-07-31T04:28:34.985Z,0.70
2022-07-31T04:31:08.577Z,1.20
2022-07-31T04:33:48.283Z,0.90
2022-07-31T04:36:30.622Z,0.80
2022-07-31T04:39:06.455Z,0.90
2022-07-31T04:41:40.256Z,0.70
2022-07-31T04:44:13.135Z,0.70
2022-07-31T04:47:07.937Z,0.70
2022-07-31T04:49:45.777Z,0.60
2022-07-31T04:52:22.901Z,0.80
2022-07-31T04:54:57.019Z,0.70
2022-07-31T04:57:30.418Z,1.00
2022-07-31T05:00:05.855Z,0.90
2022-07-31T05:02:39.097Z,1.10
2022-07-31T05:05:12.777Z,0.90
2022-07-31T05:07:48.016Z,0.70
2022-07-31T05:10:44.219Z,1.30
2022-07-31T05:13:18.016Z,0.90
2022-07-31T05:15:50.738Z,1.70
2022-07-31T05:18:23.457Z,1.00
2022-07-31T05:21:17.457Z,0.90
2022-07-31T05:24:33.181Z,0.70
2022-07-31T05:27:18.496Z,0.80
2022-07-31T05:29:55.097Z,0.90
2022-07-31T05:32:28.796Z,0.80
2022-07-31T05:35:01.778Z,0.80
2022-07-31T05:37:35.469Z,0.90
2022-07-31T05:40:11.495Z,0.80
2022-07-31T05:43:17.420Z,0.70
2022-07-31T05:46:10.216Z,0.80
2022-07-31T05:48:43.698Z,1.00
2022-07-31T05:51:17.377Z,1.00
2022-07-31T05:53:53.338Z,0.70
2022-07-31T05:56:44.701Z,0.80
2022-07-31T05:59:19.138Z,1.00
2022-07-31T06:04:25.459Z,1.00
2022-07-31T06:06:58.137Z,1.00
2022-07-31T06:09:31.139Z,1.10
2022-07-31T06:12:04.108Z,1.10
2022-07-31T06:17:44.109Z,1.20
2022-07-31T06:20:37.149Z,1.40
2022-07-31T06:23:14.556Z,1.60
2022-07-31T06:25:58.535Z,1.30
2022-07-31T06:28:32.897Z,1.50
2022-07-31T06:31:25.015Z,1.60
2022-07-31T06:34:02.627Z,1.80
2022-07-31T06:36:42.459Z,1.60
2022-07-31T06:39:21.554Z,1.60
2022-07-31T06:42:23.818Z,1.30
2022-07-31T06:45:18.398Z,1.30
2022-07-31T06:48:21.338Z,1.20
2022-07-31T06:51:21.114Z,1.30
2022-07-31T06:53:55.540Z,1.50
2022-07-31T06:56:28.618Z,1.50
2022-07-31T06:59:04.098Z,1.40
2022-07-31T07:01:39.342Z,1.50
2022-07-31T07:04:12.379Z,1.50
2022-07-31T07:06:44.938Z,1.40
2022-07-31T07:09:17.775Z,1.50
2022-07-31T07:14:27.699Z,1.20
2022-07-31T07:17:07.303Z,1.60
2022-07-31T07:19:43.257Z,1.40
2022-07-31T07:22:16.336Z,1.50
2022-07-31T07:24:49.060Z,1.40
2022-07-31T07:27:27.217Z,1.30
2022-07-31T07:32:31.617Z,1.40
2022-07-31T07:35:09.656Z,1.50
2022-07-31T07:37:59.266Z,1.20
2022-07-31T07:40:33.221Z,1.70
2022-07-31T07:43:07.583Z,1.20
2022-07-31T07:45:42.115Z,1.30
2022-07-31T07:48:14.778Z,1.30
2022-07-31T07:51:12.899Z,1.20
2022-07-31T07:53:59.499Z,1.20
2022-07-31T07:56:52.656Z,1.50
2022-07-31T07:59:38.736Z,1.60
2022-07-31T08:02:23.778Z,1.60
2022-07-31T08:04:57.859Z,1.70
2022-07-31T08:07:42.659Z,2.10
2022-07-31T08:10:34.936Z,1.70
2022-07-31T08:13:15.062Z,1.40
2022-07-31T08:16:07.301Z,1.70
2022-07-31T08:18:52.301Z,1.80
2022-07-31T08:21:25.420Z,1.70
2022-07-31T08:23:58.740Z,1.40
2022-07-31T08:29:28.719Z,1.30
2022-07-31T08:32:13.539Z,0.90
2022-07-31T08:35:13.417Z,0.90
2022-07-31T08:37:59.304Z,0.90
2022-07-31T08:40:43.855Z,0.80
2022-07-31T08:46:11.139Z,0.90
2022-07-31T08:48:47.026Z,0.90
2022-07-31T08:51:24.816Z,1.00
2022-07-31T08:54:04.619Z,1.00
2022-07-31T08:56:39.419Z,0.80
2022-07-31T08:59:17.979Z,1.00
2022-07-31T09:01:57.336Z,1.00
2022-07-31T09:04:32.915Z,1.00
2022-07-31T09:07:06.514Z,1.10
2022-07-31T09:09:51.312Z,1.00
2022-07-31T09:12:35.116Z,1.10
2022-07-31T09:15:26.867Z,1.10
2022-07-31T09:18:00.139Z,1.30
2022-07-31T09:23:12.058Z,1.10
2022-07-31T09:25:57.257Z,1.20
2022-07-31T09:28:37.659Z,1.30
2022-07-31T09:31:12.261Z,1.30
2022-07-31T09:34:05.178Z,1.40
2022-07-31T09:36:46.974Z,1.30
2022-07-31T09:39:52.587Z,1.50
2022-07-31T09:42:48.528Z,1.60
2022-07-31T09:45:30.859Z,1.40
2022-07-31T09:48:17.117Z,1.90
2022-07-31T09:51:01.423Z,1.70
2022-07-31T09:53:46.058Z,1.60
2022-07-31T09:56:39.712Z,1.70
2022-07-31T09:59:13.746Z,1.50
2022-07-31T10:01:49.169Z,1.40
2022-07-31T10:04:24.339Z,1.60
2022-07-31T10:06:58.418Z,1.40
2022-07-31T10:09:34.429Z,1.20
2022-07-31T10:12:24.459Z,1.40
2022-07-31T10:14:58.816Z,1.30
2022-07-31T10:17:36.254Z,1.10
2022-07-31T10:20:44.750Z,1.10
2022-07-31T10:23:41.027Z,1.00
2022-07-31T10:26:19.735Z,1.30
2022-07-31T10:28:56.307Z,1.00
2022-07-31T10:31:31.581Z,1.10
2022-07-31T10:34:06.697Z,1.10
2022-07-31T10:37:01.463Z,1.00
2022-07-31T10:40:05.767Z,1.10
2022-07-31T10:42:49.826Z,0.70
2022-07-31T10:45:26.935Z,0.70
2022-07-31T10:48:27.297Z,0.90
2022-07-31T10:51:14.312Z,0.70
2022-07-31T10:54:07.737Z,0.90
2022-07-31T10:57:25.063Z,0.60
2022-07-31T11:00:19.109Z,0.80
2022-07-31T11:03:19.977Z,0.90
2022-07-31T11:06:11.819Z,0.80
2022-07-31T11:08:59.297Z,0.70
2022-07-31T11:11:50.497Z,0.90
2022-07-31T11:14:47.218Z,0.60
2022-07-31T11:18:23.520Z,0.70
2022-07-31T11:20:38.658Z,0.70
2022-07-31T11:23:15.496Z,0.70
2022-07-31T11:25:50.419Z,0.80
2022-07-31T11:28:25.137Z,0.90
2022-07-31T11:31:00.935Z,0.70
2022-07-31T11:33:41.643Z,0.50
2022-07-31T11:36:18.228Z,0.60
2022-07-31T11:38:53.071Z,0.40
2022-07-31T11:41:39.787Z,0.50
2022-07-31T11:44:21.901Z,0.60
2022-07-31T11:46:58.990Z,0.50
2022-07-31T11:49:47.943Z,0.50
2022-07-31T11:52:30.664Z,0.50
2022-07-31T11:55:12.978Z,0.60
2022-07-31T11:57:52.357Z,0.50
2022-07-31T12:00:29.657Z,0.40
2022-07-31T12:03:06.097Z,0.60
2022-07-31T12:08:19.818Z,1.30
2022-07-31T12:10:53.578Z,1.70
2022-07-31T12:13:27.777Z,1.50
2022-07-31T12:16:06.378Z,1.70
2022-07-31T12:18:52.739Z,1.40
2022-07-31T12:21:34.937Z,2.00
2022-07-31T12:24:14.818Z,1.90
2022-07-31T12:26:59.776Z,2.00
2022-07-31T12:29:37.497Z,1.90
2022-07-31T12:32:10.979Z,1.90
2022-07-31T12:34:45.937Z,2.50
2022-07-31T12:37:22.220Z,2.40
2022-07-31T12:40:01.433Z,2.20
2022-07-31T12:42:41.787Z,2.00
2022-07-31T12:45:20.160Z,2.20
2022-07-31T12:47:57.553Z,2.30
2022-07-31T12:50:31.937Z,2.30
2022-07-31T12:53:06.584Z,2.70
2022-07-31T12:55:39.978Z,3.30
2022-07-31T12:58:13.506Z,2.90
2022-07-31T13:00:46.338Z,2.80
2022-07-31T13:03:19.515Z,3.00
2022-07-31T13:08:24.939Z,2.50
2022-07-31T13:10:58.257Z,2.20
2022-07-31T13:13:31.776Z,2.20
2022-07-31T13:16:06.549Z,2.10
2022-07-31T13:18:39.537Z,2.30
2022-07-31T13:21:14.457Z,2.60
2022-07-31T13:23:47.297Z,2.70
2022-07-31T13:28:51.656Z,2.60
2022-07-31T13:31:26.503Z,2.10
2022-07-31T13:33:59.539Z,2.40
2022-07-31T13:36:38.754Z,2.20
2022-07-31T13:39:12.815Z,2.40
2022-07-31T13:41:47.674Z,2.30
2022-07-31T13:44:22.077Z,2.00
2022-07-31T13:46:54.780Z,2.50
2022-07-31T13:49:32.573Z,1.90
2022-07-31T13:52:05.796Z,2.10
2022-07-31T13:57:09.736Z,1.80
2022-07-31T13:59:42.942Z,2.10
2022-07-31T14:02:15.968Z,1.90
2022-07-31T14:04:48.978Z,2.00
2022-07-31T14:09:55.769Z,1.80
2022-07-31T14:12:32.257Z,2.00
2022-07-31T14:15:07.616Z,1.60
2022-07-31T14:17:41.939Z,2.00
2022-07-31T14:20:16.057Z,2.10
2022-07-31T14:22:48.777Z,1.60
2022-07-31T14:25:21.865Z,1.90
2022-07-31T14:30:28.297Z,1.60
2022-07-31T14:33:03.105Z,1.80
2022-07-31T14:35:36.617Z,1.90
2022-07-31T14:38:12.856Z,2.00
2022-07-31T14:40:45.858Z,1.70
2022-07-31T14:43:18.977Z,1.80
2022-07-31T14:45:54.257Z,1.40
2022-07-31T14:48:27.735Z,1.70
2022-07-31T14:51:01.061Z,1.60
2022-07-31T14:56:08.854Z,1.60
2022-07-31T14:58:58.363Z,1.40
2022-07-31T15:01:33.056Z,1.40
2022-07-31T15:04:11.615Z,1.60
2022-07-31T15:06:56.230Z,1.10
2022-07-31T15:09:38.779Z,1.40
2022-07-31T15:12:17.159Z,1.90
2022-07-31T15:14:51.415Z,1.30
2022-07-31T15:17:25.319Z,1.20
2022-07-31T15:19:58.260Z,1.60
2022-07-31T15:22:31.815Z,1.60
2022-07-31T15:25:04.619Z,1.50
2022-07-31T15:27:37.739Z,1.50
2022-07-31T15:30:12.975Z,1.40
2022-07-31T15:32:45.858Z,1.30
2022-07-31T15:35:18.637Z,1.30
2022-07-31T15:37:51.858Z,1.00
2022-07-31T15:42:58.793Z,1.00
2022-07-31T15:48:08.300Z,0.80
2022-07-31T15:50:44.340Z,1.00
2022-07-31T15:53:17.180Z,0.90
2022-07-31T15:55:50.863Z,0.80
2022-07-31T15:58:24.418Z,1.00
2022-07-31T16:01:01.878Z,1.00
2022-07-31T16:03:50.655Z,1.00
2022-07-31T16:06:32.236Z,0.80
2022-07-31T16:09:05.820Z,0.70
2022-07-31T16:12:04.511Z,0.90
2022-07-31T16:14:35.379Z,0.80
2022-07-31T16:17:08.250Z,0.80
2022-07-31T16:19:41.341Z,0.80
2022-07-31T16:22:14.181Z,0.90
2022-07-31T16:24:48.619Z,0.90
2022-07-31T16:27:21.541Z,0.70
2022-07-31T16:30:00.997Z,1.20
2022-07-31T16:32:37.615Z,0.70
2022-07-31T16:35:12.659Z,0.50
2022-07-31T16:37:51.327Z,0.60
2022-07-31T16:40:30.942Z,0.70
2022-07-31T16:43:47.872Z,0.60
2022-07-31T16:46:00.817Z,0.50
2022-07-31T16:48:34.057Z,0.50
2022-07-31T16:51:08.581Z,0.60
2022-07-31T16:54:14.352Z,0.60
2022-07-31T16:56:37.866Z,1.10
2022-07-31T16:59:10.541Z,0.60
2022-07-31T17:01:53.880Z,0.70
2022-07-31T17:04:35.417Z,0.40
2022-07-31T17:07:10.458Z,0.50
2022-07-31T17:09:43.057Z,0.50
2022-07-31T17:12:18.316Z,0.50
2022-07-31T17:14:51.230Z,0.70
2022-07-31T17:17:24.378Z,0.50
2022-07-31T17:19:59.354Z,0.70
2022-07-31T17:22:35.029Z,0.50
2022-07-31T17:25:08.579Z,0.60
2022-07-31T17:27:42.740Z,0.50
2022-07-31T17:30:18.228Z,0.70
2022-07-31T17:32:51.379Z,0.60
2022-07-31T17:35:25.024Z,0.60
2022-07-31T17:37:57.577Z,0.70
2022-07-31T17:40:43.458Z,0.50
2022-07-31T17:43:27.804Z,0.70
2022-07-31T17:46:17.547Z,0.50
2022-07-31T17:48:57.484Z,0.50
2022-07-31T17:51:33.194Z,0.40
2022-07-31T17:54:10.937Z,0.90
2022-07-31T17:56:45.147Z,0.50
2022-07-31T17:59:25.036Z,0.60
2022-07-31T18:02:00.622Z,0.60
2022-07-31T18:04:38.579Z,0.70
2022-07-31T18:07:13.142Z,0.70
2022-07-31T18:09:45.898Z,0.90
2022-07-31T18:12:18.411Z,1.00
2022-07-31T18:14:50.858Z,1.10
2022-07-31T18:17:23.639Z,1.40
2022-07-31T18:19:56.301Z,0.90
2022-07-31T18:22:34.867Z,1.30
2022-07-31T18:25:22.345Z,1.20
2022-07-31T18:27:58.545Z,1.60
2022-07-31T18:30:33.743Z,1.60
2022-07-31T18:33:08.736Z,1.20
2022-07-31T18:35:42.997Z,1.30
2022-07-31T18:38:15.857Z,1.30
2022-07-31T18:40:48.536Z,1.00
2022-07-31T18:43:21.227Z,0.90
2022-07-31T18:45:53.662Z,0.80
2022-07-31T18:48:28.177Z,0.70
2022-07-31T18:51:04.986Z,1.00
2022-07-31T18:53:38.021Z,0.90
2022-07-31T18:56:12.536Z,0.70
2022-07-31T18:58:46.224Z,0.70
2022-07-31T19:01:20.645Z,0.70
2022-07-31T19:03:55.536Z,0.60
2022-07-31T19:06:28.457Z,0.60
2022-07-31T19:09:01.831Z,0.60
2022-07-31T19:11:34.719Z,0.70
2022-07-31T19:14:07.305Z,0.80
2022-07-31T19:16:40.057Z,0.70
2022-07-31T19:19:14.698Z,0.60
2022-07-31T19:21:53.139Z,0.60
2022-07-31T19:24:26.100Z,0.50
2022-07-31T19:26:59.457Z,0.70
2022-07-31T19:29:34.425Z,0.80
2022-07-31T19:32:07.898Z,0.70
2022-07-31T19:34:42.068Z,0.60
2022-07-31T19:37:22.096Z,0.60
2022-07-31T19:39:54.777Z,0.70
2022-07-31T19:42:27.655Z,0.70
2022-07-31T19:45:00.239Z,0.50
2022-07-31T19:47:32.856Z,0.60
2022-07-31T19:50:05.783Z,0.60
2022-07-31T19:52:38.415Z,0.50
2022-07-31T19:55:15.339Z,0.60
2022-07-31T19:57:48.535Z,0.60
2022-07-31T20:00:26.938Z,0.50
2022-07-31T20:03:00.828Z,0.50
2022-07-31T20:05:34.416Z,0.70
2022-07-31T20:10:38.415Z,0.50
2022-07-31T20:13:14.221Z,1.00
2022-07-31T20:15:52.039Z,0.60
2022-07-31T20:18:29.087Z,0.60
2022-07-31T20:21:07.558Z,0.50
2022-07-31T20:23:41.935Z,0.80
2022-07-31T20:26:16.417Z,0.80
2022-07-31T20:28:53.015Z,0.90
2022-07-31T20:31:25.619Z,1.10
2022-07-31T20:33:59.259Z,1.00
2022-07-31T20:36:32.615Z,1.40
2022-07-31T20:39:05.541Z,1.50
2022-07-31T20:41:37.939Z,1.60
2022-07-31T20:44:10.694Z,2.30
2022-07-31T20:46:43.538Z,2.60
2022-07-31T20:49:19.476Z,3.10
2022-07-31T20:52:11.815Z,4.90
2022-07-31T20:54:44.657Z,5.20
2022-07-31T20:57:17.784Z,6.30
2022-07-31T20:59:50.416Z,6.70
2022-07-31T21:02:23.017Z,7.60
2022-07-31T21:04:55.697Z,7.60
2022-07-31T21:07:29.144Z,8.10
2022-07-31T21:12:32.500Z,8.40
2022-07-31T21:15:06.057Z,9.00
2022-07-31T21:17:59.219Z,9.90
2022-07-31T21:20:52.302Z,10.20
2022-07-31T21:23:24.948Z,11.60
2022-07-31T21:25:59.895Z,12.40
2022-07-31T21:28:32.974Z,14.20
2022-07-31T21:31:06.695Z,14.50
2022-07-31T21:33:39.903Z,15.30
2022-07-31T21:36:16.109Z,14.70
2022-07-31T21:38:50.861Z,17.60
2022-07-31T21:41:25.977Z,16.60
2022-07-31T21:44:00.018Z,16.50
2022-07-31T21:46:40.855Z,16.70
2022-07-31T21:49:20.725Z,17.10
2022-07-31T21:51:54.857Z,16.80
2022-07-31T21:54:27.297Z,16.10
2022-07-31T21:57:00.096Z,14.80
2022-07-31T21:59:32.537Z,13.90
2022-07-31T22:02:06.135Z,12.50
2022-07-31T22:05:00.378Z,13.30
2022-07-31T22:07:42.655Z,12.70
2022-07-31T22:10:18.018Z,12.20
2022-07-31T22:12:51.458Z,13.10
2022-07-31T22:15:24.056Z,15.00
2022-07-31T22:17:57.138Z,16.30
2022-07-31T22:20:30.418Z,17.60
2022-07-31T22:23:07.979Z,18.70
2022-07-31T22:25:40.978Z,19.30
2022-07-31T22:28:14.619Z,20.00
2022-07-31T22:30:48.021Z,19.80
2022-07-31T22:33:20.579Z,19.70
2022-07-31T22:35:59.927Z,21.30
2022-07-31T22:38:33.458Z,16.80
2022-07-31T22:41:06.098Z,16.80
2022-07-31T22:44:11.138Z,15.90
2022-07-31T22:46:32.714Z,14.30
2022-07-31T22:49:07.585Z,15.30
2022-07-31T22:51:44.817Z,13.90
2022-07-31T22:54:20.738Z,15.00
2022-07-31T22:56:53.507Z,13.80
2022-07-31T22:59:26.295Z,13.60
2022-07-31T23:01:59.747Z,12.70
2022-07-31T23:04:37.178Z,13.30
2022-07-31T23:07:09.820Z,14.70
2022-07-31T23:09:42.659Z,15.30
2022-07-31T23:12:15.056Z,15.70
2022-07-31T23:14:47.746Z,16.90
2022-07-31T23:17:23.251Z,14.50
2022-07-31T23:19:57.186Z,13.80
2022-07-31T23:25:06.899Z,11.80
2022-07-31T23:27:40.378Z,11.90
2022-07-31T23:30:14.740Z,11.80
2022-07-31T23:32:47.146Z,11.70
2022-07-31T23:35:19.634Z,11.20
2022-07-31T23:37:52.263Z,13.20
2022-07-31T23:40:25.777Z,12.70
2022-07-31T23:45:31.495Z,13.20
2022-07-31T23:48:04.617Z,13.70
2022-07-31T23:50:37.736Z,13.10
2022-07-31T23:53:10.459Z,13.00
2022-07-31T23:55:45.896Z,10.50
2022-07-31T23:58:19.219Z,8.90
